sensor_id;sensor_type;location;lat;lon;timestamp;P1;durP1;ratioP1;P2;durP2;ratioP2
42018;SDS011;27703;51.980;5.848;2023-11-19T00:00:29;21.13;;;16.83;;
42018;SDS011;27703;51.980;5.848;2023-11-19T00:02:55;23.65;;;17.25;;
42018;SDS011;27703;51.980;5.848;2023-11-19T00:05:20;22.38;;;16.27;;
42018;SDS011;27703;51.980;5.848;2023-11-19T00:07:46;21.23;;;17.17;;
42018;SDS011;27703;51.980;5.848;2023-11-19T00:10:12;21.13;;;16.38;;
42018;SDS011;27703;51.980;5.848;2023-11-19T00:12:43;20.20;;;17.77;;
42018;SDS011;27703;51.980;5.848;2023-11-19T00:15:10;22.23;;;15.77;;
42018;SDS011;27703;51.980;5.848;2023-11-19T00:17:43;24.17;;;17.27;;
42018;SDS011;27703;51.980;5.848;2023-11-19T00:20:13;16.67;;;14.77;;
42018;SDS011;27703;51.980;5.848;2023-11-19T00:22:40;18.10;;;16.20;;
42018;SDS011;27703;51.980;5.848;2023-11-19T00:25:07;19.20;;;14.45;;
42018;SDS011;27703;51.980;5.848;2023-11-19T00:27:36;15.25;;;13.43;;
42018;SDS011;27703;51.980;5.848;2023-11-19T00:30:05;17.80;;;15.30;;
42018;SDS011;27703;51.980;5.848;2023-11-19T00:32:34;21.48;;;15.98;;
42018;SDS011;27703;51.980;5.848;2023-11-19T00:35:00;14.27;;;12.73;;
42018;SDS011;27703;51.980;5.848;2023-11-19T00:37:25;18.05;;;13.30;;
42018;SDS011;27703;51.980;5.848;2023-11-19T00:39:51;14.50;;;12.82;;
42018;SDS011;27703;51.980;5.848;2023-11-19T00:42:17;16.00;;;12.60;;
42018;SDS011;27703;51.980;5.848;2023-11-19T00:44:42;19.25;;;12.05;;
42018;SDS011;27703;51.980;5.848;2023-11-19T00:47:08;16.88;;;12.55;;
42018;SDS011;27703;51.980;5.848;2023-11-19T00:49:34;15.43;;;10.40;;
42018;SDS011;27703;51.980;5.848;2023-11-19T00:51:59;11.75;;;9.00;;
42018;SDS011;27703;51.980;5.848;2023-11-19T00:54:27;19.02;;;8.48;;
42018;SDS011;27703;51.980;5.848;2023-11-19T00:56:52;20.42;;;9.27;;
42018;SDS011;27703;51.980;5.848;2023-11-19T00:59:18;15.35;;;7.95;;
42018;SDS011;27703;51.980;5.848;2023-11-19T01:01:44;17.17;;;6.65;;
42018;SDS011;27703;51.980;5.848;2023-11-19T01:04:10;14.50;;;6.03;;
42018;SDS011;27703;51.980;5.848;2023-11-19T01:06:35;11.88;;;6.15;;
42018;SDS011;27703;51.980;5.848;2023-11-19T01:09:01;17.20;;;6.65;;
42018;SDS011;27703;51.980;5.848;2023-11-19T01:11:27;18.48;;;5.88;;
42018;SDS011;27703;51.980;5.848;2023-11-19T01:13:53;17.65;;;6.00;;
42018;SDS011;27703;51.980;5.848;2023-11-19T01:16:18;19.60;;;5.70;;
42018;SDS011;27703;51.980;5.848;2023-11-19T01:18:46;24.23;;;6.40;;
42018;SDS011;27703;51.980;5.848;2023-11-19T01:21:12;16.73;;;5.60;;
42018;SDS011;27703;51.980;5.848;2023-11-19T01:23:39;21.67;;;5.50;;
42018;SDS011;27703;51.980;5.848;2023-11-19T01:26:05;23.92;;;5.45;;
42018;SDS011;27703;51.980;5.848;2023-11-19T01:28:31;14.77;;;4.15;;
42018;SDS011;27703;51.980;5.848;2023-11-19T01:30:56;23.08;;;5.18;;
42018;SDS011;27703;51.980;5.848;2023-11-19T01:33:22;14.63;;;4.65;;
42018;SDS011;27703;51.980;5.848;2023-11-19T01:35:47;19.98;;;5.28;;
42018;SDS011;27703;51.980;5.848;2023-11-19T01:38:13;19.25;;;4.80;;
42018;SDS011;27703;51.980;5.848;2023-11-19T01:40:39;24.30;;;5.22;;
42018;SDS011;27703;51.980;5.848;2023-11-19T01:43:05;17.67;;;4.22;;
42018;SDS011;27703;51.980;5.848;2023-11-19T01:45:30;15.70;;;3.95;;
42018;SDS011;27703;51.980;5.848;2023-11-19T01:47:57;22.83;;;4.53;;
42018;SDS011;27703;51.980;5.848;2023-11-19T01:50:27;18.83;;;4.10;;
42018;SDS011;27703;51.980;5.848;2023-11-19T01:52:53;18.80;;;3.75;;
42018;SDS011;27703;51.980;5.848;2023-11-19T01:55:20;19.42;;;3.75;;
42018;SDS011;27703;51.980;5.848;2023-11-19T01:57:46;19.05;;;3.30;;
42018;SDS011;27703;51.980;5.848;2023-11-19T02:00:14;24.52;;;3.55;;
42018;SDS011;27703;51.980;5.848;2023-11-19T02:02:41;18.88;;;2.97;;
42018;SDS011;27703;51.980;5.848;2023-11-19T02:05:08;24.25;;;3.50;;
42018;SDS011;27703;51.980;5.848;2023-11-19T02:07:35;23.58;;;4.10;;
42018;SDS011;27703;51.980;5.848;2023-11-19T02:10:00;21.00;;;3.67;;
42018;SDS011;27703;51.980;5.848;2023-11-19T02:12:30;19.55;;;3.47;;
42018;SDS011;27703;51.980;5.848;2023-11-19T02:14:59;26.38;;;4.93;;
42018;SDS011;27703;51.980;5.848;2023-11-19T02:17:28;28.67;;;3.88;;
42018;SDS011;27703;51.980;5.848;2023-11-19T02:19:56;19.10;;;2.95;;
42018;SDS011;27703;51.980;5.848;2023-11-19T02:22:22;25.10;;;2.67;;
42018;SDS011;27703;51.980;5.848;2023-11-19T02:24:49;20.15;;;2.80;;
42018;SDS011;27703;51.980;5.848;2023-11-19T02:27:37;27.50;;;4.95;;
42018;SDS011;27703;51.980;5.848;2023-11-19T02:30:20;18.48;;;3.47;;
42018;SDS011;27703;51.980;5.848;2023-11-19T02:32:46;21.95;;;3.00;;
42018;SDS011;27703;51.980;5.848;2023-11-19T02:35:13;25.83;;;2.85;;
42018;SDS011;27703;51.980;5.848;2023-11-19T02:37:38;23.40;;;2.42;;
42018;SDS011;27703;51.980;5.848;2023-11-19T02:40:04;23.33;;;2.47;;
42018;SDS011;27703;51.980;5.848;2023-11-19T02:42:31;26.52;;;3.17;;
42018;SDS011;27703;51.980;5.848;2023-11-19T02:44:57;25.85;;;3.83;;
42018;SDS011;27703;51.980;5.848;2023-11-19T02:47:22;29.17;;;3.47;;
42018;SDS011;27703;51.980;5.848;2023-11-19T02:49:49;27.52;;;3.05;;
42018;SDS011;27703;51.980;5.848;2023-11-19T02:52:15;21.17;;;2.58;;
42018;SDS011;27703;51.980;5.848;2023-11-19T02:54:41;31.13;;;3.70;;
42018;SDS011;27703;51.980;5.848;2023-11-19T02:57:07;27.90;;;3.63;;
42018;SDS011;27703;51.980;5.848;2023-11-19T02:59:37;29.50;;;2.20;;
42018;SDS011;27703;51.980;5.848;2023-11-19T03:02:04;35.30;;;4.18;;
42018;SDS011;27703;51.980;5.848;2023-11-19T03:04:36;26.35;;;3.22;;
42018;SDS011;27703;51.980;5.848;2023-11-19T03:07:06;31.00;;;3.05;;
42018;SDS011;27703;51.980;5.848;2023-11-19T03:09:34;25.10;;;3.70;;
42018;SDS011;27703;51.980;5.848;2023-11-19T03:12:00;24.13;;;2.65;;
42018;SDS011;27703;51.980;5.848;2023-11-19T03:14:26;27.75;;;3.45;;
42018;SDS011;27703;51.980;5.848;2023-11-19T03:16:52;32.30;;;4.22;;
42018;SDS011;27703;51.980;5.848;2023-11-19T03:19:18;37.17;;;4.22;;
42018;SDS011;27703;51.980;5.848;2023-11-19T03:21:44;27.05;;;3.83;;
42018;SDS011;27703;51.980;5.848;2023-11-19T03:24:09;42.20;;;4.28;;
42018;SDS011;27703;51.980;5.848;2023-11-19T03:26:37;26.17;;;2.63;;
42018;SDS011;27703;51.980;5.848;2023-11-19T03:29:03;35.38;;;5.57;;
42018;SDS011;27703;51.980;5.848;2023-11-19T03:31:28;45.95;;;5.63;;
42018;SDS011;27703;51.980;5.848;2023-11-19T03:33:54;44.90;;;6.07;;
42018;SDS011;27703;51.980;5.848;2023-11-19T03:36:20;36.55;;;4.53;;
42018;SDS011;27703;51.980;5.848;2023-11-19T03:38:45;41.10;;;5.20;;
42018;SDS011;27703;51.980;5.848;2023-11-19T03:41:12;41.50;;;8.07;;
42018;SDS011;27703;51.980;5.848;2023-11-19T03:43:38;40.92;;;4.55;;
42018;SDS011;27703;51.980;5.848;2023-11-19T03:46:05;32.55;;;4.28;;
42018;SDS011;27703;51.980;5.848;2023-11-19T03:48:40;45.50;;;5.68;;
42018;SDS011;27703;51.980;5.848;2023-11-19T03:51:06;46.50;;;6.18;;
42018;SDS011;27703;51.980;5.848;2023-11-19T03:53:31;45.03;;;5.63;;
42018;SDS011;27703;51.980;5.848;2023-11-19T03:55:57;35.22;;;5.03;;
42018;SDS011;27703;51.980;5.848;2023-11-19T03:58:23;48.95;;;6.35;;
42018;SDS011;27703;51.980;5.848;2023-11-19T04:00:49;34.00;;;4.40;;
42018;SDS011;27703;51.980;5.848;2023-11-19T04:03:14;40.67;;;5.45;;
42018;SDS011;27703;51.980;5.848;2023-11-19T04:05:40;32.35;;;4.82;;
42018;SDS011;27703;51.980;5.848;2023-11-19T04:08:06;37.35;;;5.07;;
42018;SDS011;27703;51.980;5.848;2023-11-19T04:10:31;45.05;;;5.30;;
42018;SDS011;27703;51.980;5.848;2023-11-19T04:12:57;35.67;;;3.97;;
42018;SDS011;27703;51.980;5.848;2023-11-19T04:15:22;33.97;;;4.70;;
42018;SDS011;27703;51.980;5.848;2023-11-19T04:17:49;38.35;;;4.65;;
42018;SDS011;27703;51.980;5.848;2023-11-19T04:20:14;42.55;;;5.05;;
42018;SDS011;27703;51.980;5.848;2023-11-19T04:22:40;33.60;;;4.45;;
42018;SDS011;27703;51.980;5.848;2023-11-19T04:25:06;39.95;;;6.10;;
42018;SDS011;27703;51.980;5.848;2023-11-19T04:27:32;39.97;;;4.47;;
42018;SDS011;27703;51.980;5.848;2023-11-19T04:29:57;39.97;;;5.70;;
42018;SDS011;27703;51.980;5.848;2023-11-19T04:32:23;52.22;;;5.30;;
42018;SDS011;27703;51.980;5.848;2023-11-19T04:34:50;39.50;;;4.93;;
42018;SDS011;27703;51.980;5.848;2023-11-19T04:37:16;51.97;;;5.97;;
42018;SDS011;27703;51.980;5.848;2023-11-19T04:39:41;46.53;;;6.45;;
42018;SDS011;27703;51.980;5.848;2023-11-19T04:42:09;38.83;;;4.47;;
42018;SDS011;27703;51.980;5.848;2023-11-19T04:44:35;38.00;;;3.95;;
42018;SDS011;27703;51.980;5.848;2023-11-19T04:47:00;31.65;;;3.75;;
42018;SDS011;27703;51.980;5.848;2023-11-19T04:49:26;38.50;;;3.80;;
42018;SDS011;27703;51.980;5.848;2023-11-19T04:51:52;40.05;;;3.30;;
42018;SDS011;27703;51.980;5.848;2023-11-19T04:54:18;57.38;;;8.02;;
42018;SDS011;27703;51.980;5.848;2023-11-19T04:56:47;40.85;;;4.75;;
42018;SDS011;27703;51.980;5.848;2023-11-19T04:59:12;41.58;;;5.57;;
42018;SDS011;27703;51.980;5.848;2023-11-19T05:01:38;38.00;;;5.18;;
42018;SDS011;27703;51.980;5.848;2023-11-19T05:04:04;35.78;;;4.78;;
42018;SDS011;27703;51.980;5.848;2023-11-19T05:06:29;40.08;;;4.47;;
42018;SDS011;27703;51.980;5.848;2023-11-19T05:08:56;53.40;;;5.40;;
42018;SDS011;27703;51.980;5.848;2023-11-19T05:11:23;33.83;;;4.28;;
42018;SDS011;27703;51.980;5.848;2023-11-19T05:13:49;35.17;;;3.22;;
42018;SDS011;27703;51.980;5.848;2023-11-19T05:16:15;32.20;;;3.30;;
42018;SDS011;27703;51.980;5.848;2023-11-19T05:18:41;35.75;;;3.70;;
42018;SDS011;27703;51.980;5.848;2023-11-19T05:21:07;34.38;;;4.22;;
42018;SDS011;27703;51.980;5.848;2023-11-19T05:23:33;37.85;;;4.75;;
42018;SDS011;27703;51.980;5.848;2023-11-19T05:25:59;44.00;;;3.95;;
42018;SDS011;27703;51.980;5.848;2023-11-19T05:28:26;44.42;;;4.45;;
42018;SDS011;27703;51.980;5.848;2023-11-19T05:30:51;39.67;;;4.75;;
42018;SDS011;27703;51.980;5.848;2023-11-19T05:33:17;40.22;;;4.57;;
42018;SDS011;27703;51.980;5.848;2023-11-19T05:35:42;41.17;;;5.72;;
42018;SDS011;27703;51.980;5.848;2023-11-19T05:38:08;42.42;;;4.78;;
42018;SDS011;27703;51.980;5.848;2023-11-19T05:40:34;44.13;;;5.10;;
42018;SDS011;27703;51.980;5.848;2023-11-19T05:43:00;41.80;;;3.95;;
42018;SDS011;27703;51.980;5.848;2023-11-19T05:45:25;50.00;;;4.93;;
42018;SDS011;27703;51.980;5.848;2023-11-19T05:47:51;38.42;;;5.05;;
42018;SDS011;27703;51.980;5.848;2023-11-19T05:50:17;45.17;;;5.35;;
42018;SDS011;27703;51.980;5.848;2023-11-19T05:52:43;51.67;;;7.25;;
42018;SDS011;27703;51.980;5.848;2023-11-19T05:55:09;38.40;;;4.15;;
42018;SDS011;27703;51.980;5.848;2023-11-19T05:57:38;37.72;;;5.38;;
42018;SDS011;27703;51.980;5.848;2023-11-19T06:00:05;47.25;;;6.05;;
42018;SDS011;27703;51.980;5.848;2023-11-19T06:02:32;46.60;;;3.63;;
42018;SDS011;27703;51.980;5.848;2023-11-19T06:04:58;42.95;;;5.70;;
42018;SDS011;27703;51.980;5.848;2023-11-19T06:07:23;49.25;;;7.35;;
42018;SDS011;27703;51.980;5.848;2023-11-19T06:09:50;40.78;;;4.35;;
42018;SDS011;27703;51.980;5.848;2023-11-19T06:12:15;37.67;;;4.53;;
42018;SDS011;27703;51.980;5.848;2023-11-19T06:14:41;57.42;;;7.30;;
42018;SDS011;27703;51.980;5.848;2023-11-19T06:17:06;34.53;;;5.22;;
42018;SDS011;27703;51.980;5.848;2023-11-19T06:19:33;41.00;;;4.32;;
42018;SDS011;27703;51.980;5.848;2023-11-19T06:21:59;36.95;;;4.63;;
42018;SDS011;27703;51.980;5.848;2023-11-19T06:24:24;52.20;;;5.38;;
42018;SDS011;27703;51.980;5.848;2023-11-19T06:26:50;44.72;;;4.90;;
42018;SDS011;27703;51.980;5.848;2023-11-19T06:29:15;46.50;;;5.05;;
42018;SDS011;27703;51.980;5.848;2023-11-19T06:31:44;49.78;;;6.07;;
42018;SDS011;27703;51.980;5.848;2023-11-19T06:34:10;50.72;;;5.28;;
42018;SDS011;27703;51.980;5.848;2023-11-19T06:36:35;47.17;;;5.22;;
42018;SDS011;27703;51.980;5.848;2023-11-19T06:39:01;37.00;;;4.78;;
42018;SDS011;27703;51.980;5.848;2023-11-19T06:41:27;48.85;;;5.15;;
42018;SDS011;27703;51.980;5.848;2023-11-19T06:43:53;50.17;;;5.65;;
42018;SDS011;27703;51.980;5.848;2023-11-19T06:46:19;43.25;;;4.95;;
42018;SDS011;27703;51.980;5.848;2023-11-19T06:48:45;39.83;;;5.82;;
42018;SDS011;27703;51.980;5.848;2023-11-19T06:51:11;34.33;;;4.07;;
42018;SDS011;27703;51.980;5.848;2023-11-19T06:53:37;41.83;;;5.13;;
42018;SDS011;27703;51.980;5.848;2023-11-19T06:56:04;46.40;;;3.85;;
42018;SDS011;27703;51.980;5.848;2023-11-19T06:58:31;45.05;;;5.80;;
42018;SDS011;27703;51.980;5.848;2023-11-19T07:01:00;43.60;;;4.50;;
42018;SDS011;27703;51.980;5.848;2023-11-19T07:03:26;31.55;;;4.00;;
42018;SDS011;27703;51.980;5.848;2023-11-19T07:05:51;39.05;;;5.10;;
42018;SDS011;27703;51.980;5.848;2023-11-19T07:08:17;37.95;;;6.35;;
42018;SDS011;27703;51.980;5.848;2023-11-19T07:10:42;42.80;;;4.57;;
42018;SDS011;27703;51.980;5.848;2023-11-19T07:13:08;45.13;;;4.60;;
42018;SDS011;27703;51.980;5.848;2023-11-19T07:15:34;50.53;;;4.50;;
42018;SDS011;27703;51.980;5.848;2023-11-19T07:18:00;38.85;;;5.05;;
42018;SDS011;27703;51.980;5.848;2023-11-19T07:20:26;55.80;;;6.45;;
42018;SDS011;27703;51.980;5.848;2023-11-19T07:22:51;36.80;;;5.03;;
42018;SDS011;27703;51.980;5.848;2023-11-19T07:25:17;51.60;;;5.78;;
42018;SDS011;27703;51.980;5.848;2023-11-19T07:27:43;34.15;;;5.10;;
42018;SDS011;27703;51.980;5.848;2023-11-19T07:30:08;44.58;;;5.65;;
42018;SDS011;27703;51.980;5.848;2023-11-19T07:32:34;45.20;;;4.88;;
42018;SDS011;27703;51.980;5.848;2023-11-19T07:35:00;42.33;;;4.25;;
42018;SDS011;27703;51.980;5.848;2023-11-19T07:37:25;41.92;;;6.22;;
42018;SDS011;27703;51.980;5.848;2023-11-19T07:39:51;39.47;;;5.70;;
42018;SDS011;27703;51.980;5.848;2023-11-19T07:42:17;49.72;;;6.30;;
42018;SDS011;27703;51.980;5.848;2023-11-19T07:44:45;35.45;;;4.65;;
42018;SDS011;27703;51.980;5.848;2023-11-19T07:47:11;38.90;;;5.07;;
42018;SDS011;27703;51.980;5.848;2023-11-19T07:49:37;36.40;;;4.30;;
42018;SDS011;27703;51.980;5.848;2023-11-19T07:52:03;42.60;;;6.25;;
42018;SDS011;27703;51.980;5.848;2023-11-19T07:54:29;33.03;;;4.32;;
42018;SDS011;27703;51.980;5.848;2023-11-19T07:56:54;35.28;;;5.47;;
42018;SDS011;27703;51.980;5.848;2023-11-19T07:59:20;36.28;;;4.15;;
42018;SDS011;27703;51.980;5.848;2023-11-19T08:01:46;36.92;;;3.95;;
42018;SDS011;27703;51.980;5.848;2023-11-19T08:04:12;43.75;;;6.03;;
42018;SDS011;27703;51.980;5.848;2023-11-19T08:06:38;41.95;;;4.85;;
42018;SDS011;27703;51.980;5.848;2023-11-19T08:09:04;45.88;;;5.13;;
42018;SDS011;27703;51.980;5.848;2023-11-19T08:11:31;34.80;;;4.65;;
42018;SDS011;27703;51.980;5.848;2023-11-19T08:13:57;52.03;;;5.90;;
42018;SDS011;27703;51.980;5.848;2023-11-19T08:16:22;42.42;;;4.57;;
42018;SDS011;27703;51.980;5.848;2023-11-19T08:18:48;38.72;;;3.33;;
42018;SDS011;27703;51.980;5.848;2023-11-19T08:21:13;35.45;;;4.75;;
42018;SDS011;27703;51.980;5.848;2023-11-19T08:23:39;46.55;;;4.85;;
42018;SDS011;27703;51.980;5.848;2023-11-19T08:26:05;44.17;;;4.85;;
42018;SDS011;27703;51.980;5.848;2023-11-19T08:28:31;41.80;;;5.30;;
42018;SDS011;27703;51.980;5.848;2023-11-19T08:30:59;36.70;;;4.15;;
42018;SDS011;27703;51.980;5.848;2023-11-19T08:33:24;33.17;;;3.45;;
42018;SDS011;27703;51.980;5.848;2023-11-19T08:35:51;39.63;;;6.85;;
42018;SDS011;27703;51.980;5.848;2023-11-19T08:38:16;42.90;;;5.00;;
42018;SDS011;27703;51.980;5.848;2023-11-19T08:40:42;44.90;;;4.25;;
42018;SDS011;27703;51.980;5.848;2023-11-19T08:43:07;43.30;;;5.35;;
42018;SDS011;27703;51.980;5.848;2023-11-19T08:45:33;39.65;;;3.47;;
42018;SDS011;27703;51.980;5.848;2023-11-19T08:47:58;34.80;;;4.40;;
42018;SDS011;27703;51.980;5.848;2023-11-19T08:50:24;37.45;;;4.35;;
42018;SDS011;27703;51.980;5.848;2023-11-19T08:52:52;42.95;;;4.95;;
42018;SDS011;27703;51.980;5.848;2023-11-19T08:55:17;37.13;;;4.78;;
42018;SDS011;27703;51.980;5.848;2023-11-19T08:57:43;40.97;;;5.95;;
42018;SDS011;27703;51.980;5.848;2023-11-19T09:00:09;39.80;;;4.75;;
42018;SDS011;27703;51.980;5.848;2023-11-19T09:02:35;40.17;;;5.78;;
42018;SDS011;27703;51.980;5.848;2023-11-19T09:05:02;49.78;;;6.00;;
42018;SDS011;27703;51.980;5.848;2023-11-19T09:07:28;37.50;;;5.65;;
42018;SDS011;27703;51.980;5.848;2023-11-19T09:09:53;50.85;;;5.90;;
42018;SDS011;27703;51.980;5.848;2023-11-19T09:12:19;49.53;;;5.53;;
42018;SDS011;27703;51.980;5.848;2023-11-19T09:14:44;34.15;;;4.57;;
42018;SDS011;27703;51.980;5.848;2023-11-19T09:17:11;38.13;;;4.57;;
42018;SDS011;27703;51.980;5.848;2023-11-19T09:19:36;30.15;;;3.30;;
42018;SDS011;27703;51.980;5.848;2023-11-19T09:22:02;36.95;;;3.65;;
42018;SDS011;27703;51.980;5.848;2023-11-19T09:24:28;41.47;;;4.68;;
42018;SDS011;27703;51.980;5.848;2023-11-19T09:26:53;34.78;;;4.13;;
42018;SDS011;27703;51.980;5.848;2023-11-19T09:29:20;38.45;;;4.47;;
42018;SDS011;27703;51.980;5.848;2023-11-19T09:31:46;41.15;;;5.65;;
42018;SDS011;27703;51.980;5.848;2023-11-19T09:34:12;40.25;;;4.28;;
42018;SDS011;27703;51.980;5.848;2023-11-19T09:36:37;32.42;;;4.30;;
42018;SDS011;27703;51.980;5.848;2023-11-19T09:39:03;42.42;;;5.28;;
42018;SDS011;27703;51.980;5.848;2023-11-19T09:41:30;45.22;;;4.20;;
42018;SDS011;27703;51.980;5.848;2023-11-19T09:43:56;33.03;;;3.70;;
42018;SDS011;27703;51.980;5.848;2023-11-19T09:46:21;31.45;;;2.65;;
42018;SDS011;27703;51.980;5.848;2023-11-19T09:48:49;41.40;;;5.53;;
42018;SDS011;27703;51.980;5.848;2023-11-19T09:51:19;32.90;;;4.15;;
42018;SDS011;27703;51.980;5.848;2023-11-19T09:53:45;31.55;;;3.45;;
42018;SDS011;27703;51.980;5.848;2023-11-19T09:56:11;32.60;;;5.10;;
42018;SDS011;27703;51.980;5.848;2023-11-19T09:58:37;37.05;;;4.43;;
42018;SDS011;27703;51.980;5.848;2023-11-19T10:01:03;48.35;;;6.43;;
42018;SDS011;27703;51.980;5.848;2023-11-19T10:03:35;36.17;;;4.70;;
42018;SDS011;27703;51.980;5.848;2023-11-19T10:06:03;35.42;;;4.85;;
42018;SDS011;27703;51.980;5.848;2023-11-19T10:08:31;61.15;;;5.97;;
42018;SDS011;27703;51.980;5.848;2023-11-19T10:10:57;40.35;;;5.72;;
42018;SDS011;27703;51.980;5.848;2023-11-19T10:13:30;46.72;;;4.65;;
42018;SDS011;27703;51.980;5.848;2023-11-19T10:15:56;31.58;;;3.13;;
42018;SDS011;27703;51.980;5.848;2023-11-19T10:18:27;43.22;;;4.57;;
42018;SDS011;27703;51.980;5.848;2023-11-19T10:20:53;35.00;;;4.20;;
42018;SDS011;27703;51.980;5.848;2023-11-19T10:23:19;34.55;;;4.30;;
42018;SDS011;27703;51.980;5.848;2023-11-19T10:25:45;43.47;;;4.32;;
42018;SDS011;27703;51.980;5.848;2023-11-19T10:28:11;36.65;;;6.10;;
42018;SDS011;27703;51.980;5.848;2023-11-19T10:30:39;39.10;;;4.28;;
42018;SDS011;27703;51.980;5.848;2023-11-19T10:33:10;45.75;;;5.25;;
42018;SDS011;27703;51.980;5.848;2023-11-19T10:35:56;37.95;;;4.10;;
42018;SDS011;27703;51.980;5.848;2023-11-19T10:38:23;33.42;;;3.00;;
42018;SDS011;27703;51.980;5.848;2023-11-19T10:40:49;37.70;;;3.58;;
42018;SDS011;27703;51.980;5.848;2023-11-19T10:43:16;42.33;;;4.28;;
42018;SDS011;27703;51.980;5.848;2023-11-19T10:45:44;42.72;;;4.43;;
42018;SDS011;27703;51.980;5.848;2023-11-19T10:48:10;37.45;;;5.22;;
42018;SDS011;27703;51.980;5.848;2023-11-19T10:50:37;38.28;;;4.10;;
42018;SDS011;27703;51.980;5.848;2023-11-19T10:53:08;33.75;;;4.32;;
42018;SDS011;27703;51.980;5.848;2023-11-19T10:55:35;40.55;;;4.97;;
42018;SDS011;27703;51.980;5.848;2023-11-19T10:58:04;38.90;;;4.05;;
42018;SDS011;27703;51.980;5.848;2023-11-19T11:00:34;26.10;;;3.88;;
42018;SDS011;27703;51.980;5.848;2023-11-19T11:03:21;41.00;;;4.40;;
42018;SDS011;27703;51.980;5.848;2023-11-19T11:05:50;42.28;;;3.80;;
42018;SDS011;27703;51.980;5.848;2023-11-19T11:08:18;32.47;;;3.85;;
42018;SDS011;27703;51.980;5.848;2023-11-19T11:10:51;28.63;;;2.90;;
42018;SDS011;27703;51.980;5.848;2023-11-19T11:13:19;40.38;;;4.18;;
42018;SDS011;27703;51.980;5.848;2023-11-19T11:15:45;32.42;;;3.50;;
42018;SDS011;27703;51.980;5.848;2023-11-19T11:18:12;37.25;;;5.45;;
42018;SDS011;27703;51.980;5.848;2023-11-19T11:20:38;39.30;;;3.92;;
42018;SDS011;27703;51.980;5.848;2023-11-19T11:29:01;29.77;;;3.85;;
42018;SDS011;27703;51.980;5.848;2023-11-19T11:37:19;32.35;;;3.92;;
42018;SDS011;27703;51.980;5.848;2023-11-19T11:39:52;34.90;;;3.17;;
42018;SDS011;27703;51.980;5.848;2023-11-19T11:44:59;29.80;;;4.13;;
42018;SDS011;27703;51.980;5.848;2023-11-19T11:50:07;31.73;;;3.33;;
42018;SDS011;27703;51.980;5.848;2023-11-19T11:57:50;31.95;;;2.83;;
42018;SDS011;27703;51.980;5.848;2023-11-19T12:02:55;37.45;;;4.45;;
42018;SDS011;27703;51.980;5.848;2023-11-19T12:05:21;31.23;;;2.78;;
42018;SDS011;27703;51.980;5.848;2023-11-19T12:07:56;35.80;;;3.75;;
42018;SDS011;27703;51.980;5.848;2023-11-19T12:10:25;24.35;;;3.22;;
42018;SDS011;27703;51.980;5.848;2023-11-19T12:12:56;29.30;;;2.53;;
42018;SDS011;27703;51.980;5.848;2023-11-19T12:15:23;29.80;;;2.67;;
42018;SDS011;27703;51.980;5.848;2023-11-19T12:17:51;28.80;;;2.85;;
42018;SDS011;27703;51.980;5.848;2023-11-19T12:20:18;15.63;;;1.92;;
42018;SDS011;27703;51.980;5.848;2023-11-19T12:22:46;27.80;;;2.60;;
42018;SDS011;27703;51.980;5.848;2023-11-19T12:25:14;20.67;;;1.58;;
42018;SDS011;27703;51.980;5.848;2023-11-19T12:27:45;25.20;;;2.65;;
42018;SDS011;27703;51.980;5.848;2023-11-19T12:30:18;25.20;;;2.85;;
42018;SDS011;27703;51.980;5.848;2023-11-19T12:32:47;31.92;;;2.92;;
42018;SDS011;27703;51.980;5.848;2023-11-19T12:35:14;26.83;;;3.17;;
42018;SDS011;27703;51.980;5.848;2023-11-19T12:37:43;22.05;;;2.15;;
42018;SDS011;27703;51.980;5.848;2023-11-19T12:40:24;24.73;;;3.58;;
42018;SDS011;27703;51.980;5.848;2023-11-19T12:42:51;24.25;;;3.67;;
42018;SDS011;27703;51.980;5.848;2023-11-19T12:45:18;16.35;;;1.77;;
42018;SDS011;27703;51.980;5.848;2023-11-19T12:47:46;30.98;;;2.45;;
42018;SDS011;27703;51.980;5.848;2023-11-19T12:50:17;24.90;;;2.25;;
42018;SDS011;27703;51.980;5.848;2023-11-19T12:52:43;22.67;;;3.33;;
42018;SDS011;27703;51.980;5.848;2023-11-19T12:55:32;23.88;;;3.33;;
42018;SDS011;27703;51.980;5.848;2023-11-19T12:57:57;25.73;;;1.90;;
42018;SDS011;27703;51.980;5.848;2023-11-19T13:00:24;20.02;;;2.33;;
42018;SDS011;27703;51.980;5.848;2023-11-19T13:02:52;28.80;;;3.20;;
42018;SDS011;27703;51.980;5.848;2023-11-19T13:05:31;20.13;;;2.53;;
42018;SDS011;27703;51.980;5.848;2023-11-19T13:08:08;21.08;;;2.25;;
42018;SDS011;27703;51.980;5.848;2023-11-19T13:10:51;23.27;;;3.30;;
42018;SDS011;27703;51.980;5.848;2023-11-19T13:13:18;32.20;;;2.53;;
42018;SDS011;27703;51.980;5.848;2023-11-19T13:15:44;23.08;;;2.53;;
42018;SDS011;27703;51.980;5.848;2023-11-19T13:18:09;28.17;;;3.13;;
42018;SDS011;27703;51.980;5.848;2023-11-19T13:20:35;22.45;;;2.03;;
42018;SDS011;27703;51.980;5.848;2023-11-19T13:23:03;26.50;;;4.05;;
42018;SDS011;27703;51.980;5.848;2023-11-19T13:25:30;28.15;;;2.28;;
42018;SDS011;27703;51.980;5.848;2023-11-19T13:27:57;30.38;;;3.60;;
42018;SDS011;27703;51.980;5.848;2023-11-19T13:30:22;26.05;;;3.83;;
42018;SDS011;27703;51.980;5.848;2023-11-19T13:32:49;28.10;;;3.90;;
42018;SDS011;27703;51.980;5.848;2023-11-19T13:35:15;31.92;;;3.47;;
42018;SDS011;27703;51.980;5.848;2023-11-19T13:37:42;27.08;;;3.08;;
42018;SDS011;27703;51.980;5.848;2023-11-19T13:40:08;23.77;;;2.65;;
42018;SDS011;27703;51.980;5.848;2023-11-19T13:42:35;24.67;;;3.28;;
42018;SDS011;27703;51.980;5.848;2023-11-19T13:45:02;24.42;;;2.33;;
42018;SDS011;27703;51.980;5.848;2023-11-19T13:47:28;32.92;;;4.35;;
42018;SDS011;27703;51.980;5.848;2023-11-19T13:49:54;25.50;;;2.40;;
42018;SDS011;27703;51.980;5.848;2023-11-19T13:52:19;31.40;;;3.95;;
42018;SDS011;27703;51.980;5.848;2023-11-19T13:54:45;28.48;;;3.40;;
42018;SDS011;27703;51.980;5.848;2023-11-19T13:57:10;19.30;;;2.45;;
42018;SDS011;27703;51.980;5.848;2023-11-19T13:59:39;19.48;;;2.33;;
42018;SDS011;27703;51.980;5.848;2023-11-19T14:02:05;22.88;;;1.80;;
42018;SDS011;27703;51.980;5.848;2023-11-19T14:04:32;26.50;;;3.15;;
42018;SDS011;27703;51.980;5.848;2023-11-19T14:06:58;24.55;;;2.40;;
42018;SDS011;27703;51.980;5.848;2023-11-19T14:09:23;28.40;;;3.33;;
42018;SDS011;27703;51.980;5.848;2023-11-19T14:11:49;22.60;;;3.22;;
42018;SDS011;27703;51.980;5.848;2023-11-19T14:14:16;27.70;;;2.83;;
42018;SDS011;27703;51.980;5.848;2023-11-19T14:16:41;21.88;;;2.70;;
42018;SDS011;27703;51.980;5.848;2023-11-19T14:19:07;24.52;;;2.53;;
42018;SDS011;27703;51.980;5.848;2023-11-19T14:21:33;24.35;;;3.08;;
42018;SDS011;27703;51.980;5.848;2023-11-19T14:23:58;25.48;;;2.28;;
42018;SDS011;27703;51.980;5.848;2023-11-19T14:26:24;21.98;;;1.83;;
42018;SDS011;27703;51.980;5.848;2023-11-19T14:28:49;20.33;;;2.40;;
42018;SDS011;27703;51.980;5.848;2023-11-19T14:31:15;24.73;;;2.78;;
42018;SDS011;27703;51.980;5.848;2023-11-19T14:33:40;26.67;;;3.33;;
42018;SDS011;27703;51.980;5.848;2023-11-19T14:36:06;25.70;;;2.45;;
42018;SDS011;27703;51.980;5.848;2023-11-19T14:38:32;24.38;;;2.15;;
42018;SDS011;27703;51.980;5.848;2023-11-19T14:40:58;21.92;;;2.47;;
42018;SDS011;27703;51.980;5.848;2023-11-19T14:43:24;21.27;;;2.33;;
42018;SDS011;27703;51.980;5.848;2023-11-19T14:45:50;23.48;;;1.50;;
42018;SDS011;27703;51.980;5.848;2023-11-19T14:48:16;22.58;;;2.28;;
42018;SDS011;27703;51.980;5.848;2023-11-19T14:50:42;22.67;;;1.95;;
42018;SDS011;27703;51.980;5.848;2023-11-19T14:53:09;18.70;;;1.80;;
42018;SDS011;27703;51.980;5.848;2023-11-19T14:55:35;22.83;;;2.90;;